createdAt,value
2019-03-12T00:00:11.986Z,41.18
2019-03-12T00:01:12.025Z,40.67
2019-03-12T00:02:11.964Z,40.97
2019-03-12T00:03:11.957Z,41.08
2019-03-12T00:04:11.947Z,41.28
2019-03-12T00:05:11.928Z,40.79
2019-03-12T00:06:11.917Z,41.20
2019-03-12T00:07:12.112Z,41.11
2019-03-12T00:08:11.900Z,41.11
2019-03-12T00:09:11.887Z,41.40
2019-03-12T00:10:11.879Z,41.38
2019-03-12T00:11:11.867Z,40.57
2019-03-12T00:12:11.859Z,41.28
2019-03-12T00:13:11.891Z,41.18
2019-03-12T00:14:11.834Z,40.88
2019-03-12T00:15:11.826Z,41.18
2019-03-12T00:16:11.814Z,41.08
2019-03-12T00:17:11.808Z,41.20
2019-03-12T00:18:11.793Z,41.20
2019-03-12T00:19:11.878Z,41.00
2019-03-12T00:20:11.768Z,41.20
2019-03-12T00:21:11.758Z,40.67
2019-03-12T00:22:11.748Z,40.67
2019-03-12T00:23:11.739Z,41.28
2019-03-12T00:24:11.722Z,41.38
2019-03-12T00:25:11.866Z,41.08
2019-03-12T00:26:11.701Z,41.38
2019-03-12T00:27:11.695Z,40.88
2019-03-12T00:28:11.683Z,41.08
2019-03-12T00:29:11.673Z,41.06
2019-03-12T00:30:11.659Z,41.18
2019-03-12T00:31:11.746Z,41.18
2019-03-12T00:32:11.638Z,41.38
2019-03-12T00:33:11.626Z,41.18
2019-03-12T00:34:11.618Z,41.18
2019-03-12T00:35:11.610Z,41.06
2019-03-12T00:36:11.596Z,41.16
2019-03-12T00:37:11.631Z,41.08
2019-03-12T00:38:11.576Z,41.08
2019-03-12T00:39:11.575Z,41.08
2019-03-12T00:40:11.557Z,40.66
2019-03-12T00:41:11.542Z,41.06
2019-03-12T00:42:11.532Z,41.26
2019-03-12T00:43:11.673Z,40.86
2019-03-12T00:44:11.508Z,41.06
2019-03-12T00:45:11.502Z,41.16
2019-03-12T00:46:11.489Z,41.06
2019-03-12T00:47:11.478Z,40.55
2019-03-12T00:48:11.467Z,40.55
2019-03-12T00:49:11.509Z,40.88
2019-03-12T00:50:11.449Z,40.57
2019-03-12T00:51:11.437Z,41.06
2019-03-12T00:52:11.421Z,40.96
2019-03-12T00:53:11.412Z,41.18
2019-03-12T00:54:11.401Z,40.75
2019-03-12T00:55:11.492Z,41.08
2019-03-12T00:56:11.376Z,40.55
2019-03-12T00:57:11.371Z,40.75
2019-03-12T00:58:11.360Z,40.67
2019-03-12T00:59:11.370Z,40.97
2019-03-12T01:00:11.339Z,40.75
2019-03-12T01:01:11.524Z,41.06
2019-03-12T01:02:11.321Z,40.96
2019-03-12T01:03:11.307Z,41.16
2019-03-12T01:04:11.298Z,41.26
2019-03-12T01:05:11.281Z,40.63
2019-03-12T01:06:11.274Z,40.75
2019-03-12T01:07:11.369Z,40.74
2019-03-12T01:08:11.254Z,40.96
2019-03-12T01:09:11.240Z,40.89
2019-03-12T01:10:11.230Z,41.66
2019-03-12T01:11:11.219Z,43.95
2019-03-12T01:12:11.259Z,44.62
2019-03-12T01:13:11.195Z,46.20
2019-03-12T01:14:11.186Z,48.16
2019-03-12T01:15:11.174Z,47.24
2019-03-12T01:16:11.166Z,48.30
2019-03-12T01:17:11.154Z,50.08
2019-03-12T01:18:13.650Z,51.04
2019-03-12T01:19:11.131Z,51.58
2019-03-12T01:20:11.122Z,52.55
2019-03-12T01:21:11.110Z,53.21
2019-03-12T01:22:11.101Z,51.96
2019-03-12T01:23:11.090Z,50.36
2019-03-12T01:24:11.127Z,48.16
2019-03-12T01:25:11.067Z,48.05
2019-03-12T01:26:11.055Z,48.28
2019-03-12T01:27:11.048Z,48.59
2019-03-12T01:28:11.034Z,49.75
2019-03-12T01:29:11.175Z,49.90
2019-03-12T01:30:11.061Z,50.66
2019-03-12T01:31:11.003Z,50.84
2019-03-12T01:32:10.990Z,50.94
2019-03-12T01:33:10.981Z,50.99
2019-03-12T01:34:10.972Z,52.62
2019-03-12T01:35:11.010Z,51.76
2019-03-12T01:36:10.950Z,50.66
2019-03-12T01:37:10.940Z,50.66
2019-03-12T01:38:10.927Z,52.01
2019-03-12T01:39:10.918Z,51.94
2019-03-12T01:40:10.906Z,48.69
2019-03-12T01:41:10.960Z,48.11
2019-03-12T01:42:10.886Z,46.35
2019-03-12T01:43:10.874Z,44.68
2019-03-12T01:44:10.863Z,44.33
2019-03-12T01:45:10.853Z,43.50
2019-03-12T01:46:10.845Z,43.38
2019-03-12T01:47:10.981Z,43.18
2019-03-12T01:48:10.830Z,42.87
2019-03-12T01:49:10.812Z,42.45
2019-03-12T01:50:10.800Z,41.64
2019-03-12T01:51:10.789Z,42.35
2019-03-12T01:52:10.843Z,42.16
2019-03-12T01:53:10.819Z,43.24
2019-03-12T01:54:10.757Z,44.21
2019-03-12T01:55:10.747Z,46.08
2019-03-12T01:56:10.736Z,47.24
2019-03-12T01:57:10.726Z,47.67
2019-03-12T01:58:10.885Z,48.71
2019-03-12T01:59:10.704Z,48.73
2019-03-12T02:00:10.693Z,49.98
2019-03-12T02:01:10.680Z,50.10
2019-03-12T02:02:10.673Z,50.66
2019-03-12T02:03:10.662Z,52.01
2019-03-12T02:04:10.799Z,53.36
2019-03-12T02:05:10.744Z,53.90
2019-03-12T02:06:10.628Z,54.33
2019-03-12T02:07:10.619Z,54.87
2019-03-12T02:08:10.611Z,55.17
2019-03-12T02:09:10.596Z,55.27
2019-03-12T02:10:10.634Z,57.32
2019-03-12T02:11:10.575Z,58.98
2019-03-12T02:12:10.566Z,58.60
2019-03-12T02:13:10.557Z,59.72
2019-03-12T02:14:10.545Z,60.13
2019-03-12T02:15:10.531Z,59.85
2019-03-12T02:16:10.571Z,59.72
2019-03-12T02:17:10.511Z,59.32
2019-03-12T02:18:10.513Z,58.63
2019-03-12T02:19:10.489Z,58.32
2019-03-12T02:20:10.477Z,58.73
2019-03-12T02:21:10.469Z,57.91
2019-03-12T02:22:10.610Z,58.73
2019-03-12T02:23:10.446Z,59.14
2019-03-12T02:24:10.436Z,58.94
2019-03-12T02:25:10.425Z,58.94
2019-03-12T02:26:10.417Z,59.85
2019-03-12T02:27:10.403Z,59.65
2019-03-12T02:28:10.449Z,58.83
2019-03-12T02:29:10.385Z,58.52
2019-03-12T02:30:10.374Z,58.52
2019-03-12T02:31:10.361Z,58.94
2019-03-12T02:32:10.354Z,58.32
2019-03-12T02:33:10.343Z,58.94
2019-03-12T02:34:10.378Z,58.52
2019-03-12T02:35:10.318Z,58.73
2019-03-12T02:36:10.309Z,59.03
2019-03-12T02:37:10.299Z,58.42
2019-03-12T02:38:10.292Z,58.63
2019-03-12T02:39:10.277Z,58.73
2019-03-12T02:40:10.468Z,58.19
2019-03-12T02:41:10.254Z,58.50
2019-03-12T02:42:12.706Z,57.78
2019-03-12T02:43:10.233Z,58.29
2019-03-12T02:44:10.224Z,58.19
2019-03-12T02:45:10.213Z,57.58
2019-03-12T02:46:10.251Z,57.68
2019-03-12T02:47:10.189Z,57.58
2019-03-12T02:48:10.180Z,56.35
2019-03-12T02:49:10.440Z,56.43
2019-03-12T02:50:10.157Z,56.43
2019-03-12T02:51:10.147Z,56.22
2019-03-12T02:52:10.189Z,55.92
2019-03-12T02:53:10.124Z,56.32
2019-03-12T02:54:10.120Z,56.53
2019-03-12T02:55:10.105Z,55.92
2019-03-12T02:56:10.092Z,55.68
2019-03-12T02:57:10.102Z,56.12
2019-03-12T02:58:10.220Z,56.09
2019-03-12T02:59:10.058Z,56.22
2019-03-12T03:00:10.051Z,56.50
2019-03-12T03:01:10.039Z,56.70
2019-03-12T03:02:10.033Z,55.96
2019-03-12T03:03:10.017Z,55.17
2019-03-12T03:04:10.057Z,55.38
2019-03-12T03:05:09.995Z,55.66
2019-03-12T03:06:09.988Z,53.61
2019-03-12T03:07:09.972Z,54.33
2019-03-12T03:08:09.963Z,52.19
2019-03-12T03:09:09.954Z,50.83
2019-03-12T03:10:09.992Z,51.95
2019-03-12T03:11:09.931Z,52.55
2019-03-12T03:12:09.919Z,51.83
2019-03-12T03:13:09.918Z,51.42
2019-03-12T03:14:09.898Z,51.32
2019-03-12T03:15:09.899Z,50.61
2019-03-12T03:16:10.029Z,48.54
2019-03-12T03:17:09.868Z,49.87
2019-03-12T03:18:09.855Z,50.79
2019-03-12T03:19:09.847Z,50.58
2019-03-12T03:20:09.834Z,50.38
2019-03-12T03:21:09.953Z,49.67
2019-03-12T03:22:09.865Z,49.84
2019-03-12T03:23:09.801Z,49.03
2019-03-12T03:24:09.791Z,48.21
2019-03-12T03:25:09.920Z,48.52
2019-03-12T03:26:09.771Z,48.93
2019-03-12T03:27:09.763Z,49.95
2019-03-12T03:28:09.800Z,49.03
2019-03-12T03:29:09.737Z,49.92
2019-03-12T03:30:09.740Z,50.13
2019-03-12T03:31:09.736Z,49.29
2019-03-12T03:32:09.711Z,48.57
2019-03-12T03:33:09.697Z,48.43
2019-03-12T03:34:09.835Z,47.80
2019-03-12T03:35:09.727Z,46.66
2019-03-12T03:36:09.663Z,45.44
2019-03-12T03:37:09.664Z,44.80
2019-03-12T03:38:09.670Z,44.07
2019-03-12T03:39:09.640Z,44.98
2019-03-12T03:40:09.684Z,43.34
2019-03-12T03:41:09.616Z,44.03
2019-03-12T03:42:09.602Z,43.42
2019-03-12T03:43:09.592Z,42.41
2019-03-12T03:44:09.581Z,42.90
2019-03-12T03:45:09.568Z,42.37
2019-03-12T03:46:09.667Z,42.45
2019-03-12T03:47:09.549Z,41.03
2019-03-12T03:48:09.540Z,40.81
2019-03-12T03:49:09.535Z,40.06
2019-03-12T03:50:09.518Z,39.42
2019-03-12T03:51:09.586Z,38.59
2019-03-12T03:52:09.649Z,37.46
2019-03-12T03:53:09.515Z,36.94
2019-03-12T03:54:09.478Z,36.52
2019-03-12T03:55:09.466Z,36.81
2019-03-12T03:56:09.455Z,36.79
2019-03-12T03:57:09.445Z,36.16
2019-03-12T03:58:09.485Z,35.52
2019-03-12T03:59:09.425Z,35.02
2019-03-12T04:00:09.411Z,34.80
2019-03-12T04:01:09.404Z,35.11
2019-03-12T04:02:09.397Z,34.28
2019-03-12T04:03:09.382Z,34.80
2019-03-12T04:04:09.424Z,35.00
2019-03-12T04:05:09.360Z,35.00
2019-03-12T04:06:09.350Z,34.40
2019-03-12T04:07:09.341Z,34.38
2019-03-12T04:08:09.328Z,34.79
2019-03-12T04:09:09.315Z,34.37
2019-03-12T04:10:09.355Z,34.67
2019-03-12T04:11:09.293Z,34.97
2019-03-12T04:12:09.281Z,34.46
2019-03-12T04:13:09.271Z,34.03
2019-03-12T04:14:09.258Z,34.24
2019-03-12T04:15:09.402Z,34.05
2019-03-12T04:16:09.241Z,34.03
2019-03-12T04:17:09.227Z,34.05
2019-03-12T04:18:09.218Z,34.05
2019-03-12T04:19:09.208Z,34.05
2019-03-12T04:20:09.213Z,34.03
2019-03-12T04:21:09.238Z,33.94
2019-03-12T04:22:09.174Z,33.74
2019-03-12T04:23:09.171Z,34.25
2019-03-12T04:24:09.155Z,34.35
2019-03-12T04:25:09.147Z,34.03
2019-03-12T04:26:09.134Z,32.81
2019-03-12T04:27:09.177Z,33.42
2019-03-12T04:28:09.117Z,32.78
2019-03-12T04:29:09.101Z,32.48
2019-03-12T04:30:09.100Z,32.47
2019-03-12T04:31:09.081Z,32.15
2019-03-12T04:32:09.081Z,31.05
2019-03-12T04:33:09.212Z,31.93
2019-03-12T04:34:09.049Z,31.12
2019-03-12T04:35:09.042Z,31.10
2019-03-12T04:36:09.029Z,30.29
2019-03-12T04:37:09.019Z,30.18
2019-03-12T04:38:09.008Z,31.26
2019-03-12T04:39:09.049Z,29.33
2019-03-12T04:40:08.989Z,28.74
2019-03-12T04:41:08.978Z,28.72
2019-03-12T04:42:08.967Z,28.32
2019-03-12T04:43:08.957Z,28.33
2019-03-12T04:44:08.949Z,29.73
2019-03-12T04:45:08.986Z,28.74
2019-03-12T04:46:08.925Z,28.93
2019-03-12T04:47:08.914Z,28.74
2019-03-12T04:48:08.903Z,28.75
2019-03-12T04:49:08.893Z,28.65
2019-03-12T04:50:08.884Z,29.55
2019-03-12T04:51:09.824Z,28.95
2019-03-12T04:52:08.869Z,29.24
2019-03-12T04:53:08.853Z,28.33
2019-03-12T04:54:08.843Z,28.62
2019-03-12T04:55:08.832Z,27.61
2019-03-12T04:56:08.821Z,28.11
2019-03-12T04:57:08.861Z,27.81
2019-03-12T04:58:08.801Z,28.11
2019-03-12T04:59:08.790Z,28.99
2019-03-12T05:00:08.779Z,27.28
2019-03-12T05:01:08.770Z,27.20
2019-03-12T05:02:08.760Z,27.39
2019-03-12T05:03:08.799Z,27.39
2019-03-12T05:04:08.740Z,26.98
2019-03-12T05:05:08.729Z,27.27
2019-03-12T05:06:08.719Z,27.16
2019-03-12T05:07:08.708Z,27.26
2019-03-12T05:08:08.699Z,27.46
2019-03-12T05:09:08.840Z,26.56
2019-03-12T05:10:08.677Z,26.66
2019-03-12T05:11:08.672Z,27.16
2019-03-12T05:12:08.656Z,26.97
2019-03-12T05:13:08.647Z,27.27
2019-03-12T05:14:08.636Z,27.87
2019-03-12T05:15:08.676Z,27.57
2019-03-12T05:16:08.627Z,27.17
2019-03-12T05:17:08.606Z,27.37
2019-03-12T05:18:08.595Z,27.37
2019-03-12T05:19:08.586Z,27.57
2019-03-12T05:20:08.577Z,27.28
2019-03-12T05:21:08.665Z,27.71
2019-03-12T05:22:08.553Z,27.94
2019-03-12T05:23:08.545Z,28.66
2019-03-12T05:24:08.533Z,28.66
2019-03-12T05:25:08.523Z,28.89
2019-03-12T05:26:08.513Z,30.40
2019-03-12T05:27:08.651Z,30.42
2019-03-12T05:28:08.492Z,30.53
2019-03-12T05:29:08.484Z,30.55
2019-03-12T05:30:08.470Z,32.17
2019-03-12T05:31:08.462Z,32.48
2019-03-12T05:32:08.450Z,32.48
2019-03-12T05:33:08.494Z,32.20
2019-03-12T05:34:08.430Z,31.79
2019-03-12T05:35:08.419Z,31.61
2019-03-12T05:36:08.417Z,31.51
2019-03-12T05:37:08.402Z,31.82
2019-03-12T05:38:08.394Z,32.13
2019-03-12T05:39:08.430Z,30.32
2019-03-12T05:40:08.369Z,31.32
2019-03-12T05:41:08.359Z,31.84
2019-03-12T05:42:08.348Z,32.55
2019-03-12T05:43:08.338Z,33.56
2019-03-12T05:44:08.326Z,32.36
2019-03-12T05:45:08.467Z,32.56
2019-03-12T05:46:08.308Z,32.58
2019-03-12T05:47:08.452Z,33.68
2019-03-12T05:48:08.286Z,33.28
2019-03-12T05:49:08.275Z,33.28
2019-03-12T05:50:08.266Z,33.28
2019-03-12T05:51:08.304Z,34.58
2019-03-12T05:52:08.248Z,33.58
2019-03-12T05:53:08.234Z,32.36
2019-03-12T05:54:08.222Z,31.65
2019-03-12T05:55:08.214Z,32.76
2019-03-12T05:56:08.202Z,32.58
2019-03-12T05:57:08.244Z,33.56
2019-03-12T05:58:08.181Z,32.26
2019-03-12T05:59:08.170Z,31.56
2019-03-12T06:00:08.237Z,32.26
2019-03-12T06:01:08.150Z,32.26
2019-03-12T06:02:08.143Z,32.56
2019-03-12T06:03:08.280Z,32.55
2019-03-12T06:04:08.119Z,32.36
2019-03-12T06:05:08.111Z,32.86
2019-03-12T06:06:08.102Z,32.36
2019-03-12T06:07:08.085Z,32.46
2019-03-12T06:08:08.079Z,31.65
2019-03-12T06:09:08.118Z,32.66
2019-03-12T06:10:08.059Z,33.47
2019-03-12T06:11:08.047Z,32.58
2019-03-12T06:12:08.038Z,33.36
2019-03-12T06:13:08.027Z,31.67
2019-03-12T06:14:08.014Z,32.27
2019-03-12T06:15:08.108Z,32.29
2019-03-12T06:16:07.995Z,31.99
2019-03-12T06:17:07.988Z,31.60
2019-03-12T06:18:07.973Z,31.90
2019-03-12T06:19:07.964Z,32.61
2019-03-12T06:20:07.952Z,32.92
2019-03-12T06:21:08.093Z,34.44
2019-03-12T06:22:11.275Z,31.90
2019-03-12T06:23:07.922Z,32.72
2019-03-12T06:24:07.940Z,32.20
2019-03-12T06:25:07.902Z,32.61
2019-03-12T06:26:07.900Z,35.02
2019-03-12T06:27:08.130Z,32.69
2019-03-12T06:28:07.871Z,32.39
2019-03-12T06:29:07.863Z,33.48
2019-03-12T06:30:07.849Z,31.57
2019-03-12T06:31:07.840Z,32.67
2019-03-12T06:32:07.828Z,32.17
2019-03-12T06:33:07.867Z,31.27
2019-03-12T06:34:07.812Z,33.18
2019-03-12T06:35:07.800Z,35.91
2019-03-12T06:36:07.788Z,32.67
2019-03-12T06:37:07.776Z,32.58
2019-03-12T06:38:07.767Z,32.49
2019-03-12T06:39:07.804Z,32.78
2019-03-12T06:40:07.745Z,34.28
2019-03-12T06:41:07.735Z,32.47
2019-03-12T06:42:08.182Z,31.56
2019-03-12T06:43:07.711Z,30.95
2019-03-12T06:44:07.709Z,33.06
2019-03-12T06:45:07.841Z,30.63
2019-03-12T06:46:07.686Z,30.15
2019-03-12T06:47:07.673Z,30.35
2019-03-12T06:48:07.662Z,30.35
2019-03-12T06:49:07.652Z,31.57
2019-03-12T06:50:07.692Z,33.06
2019-03-12T06:51:07.640Z,34.47
2019-03-12T06:52:07.626Z,31.74
2019-03-12T06:53:07.612Z,31.24
2019-03-12T06:54:07.600Z,34.44
2019-03-12T06:55:07.611Z,32.11
2019-03-12T06:56:07.632Z,31.51
2019-03-12T06:57:07.572Z,31.09
2019-03-12T06:58:07.557Z,33.80
2019-03-12T06:59:07.548Z,32.48
2019-03-12T07:00:07.538Z,30.38
2019-03-12T07:01:08.306Z,29.57
2019-03-12T07:02:07.516Z,29.29
2019-03-12T07:03:07.505Z,29.39
2019-03-12T07:04:07.496Z,29.40
2019-03-12T07:05:07.488Z,29.62
2019-03-12T07:06:07.478Z,31.22
2019-03-12T07:07:11.579Z,30.22
2019-03-12T07:08:07.457Z,29.41
2019-03-12T07:09:07.445Z,29.53
2019-03-12T07:10:07.434Z,29.54
2019-03-12T07:11:07.423Z,30.05
2019-03-12T07:12:07.412Z,32.37
2019-03-12T07:13:07.455Z,31.57
2019-03-12T07:14:07.391Z,34.89
2019-03-12T07:15:07.383Z,35.47
2019-03-12T07:16:07.371Z,30.13
2019-03-12T07:17:07.360Z,34.24
2019-03-12T07:18:07.352Z,30.43
2019-03-12T07:19:07.490Z,30.34
2019-03-12T07:20:07.330Z,31.94
2019-03-12T07:21:07.320Z,31.84
2019-03-12T07:22:07.312Z,30.74
2019-03-12T07:23:07.299Z,32.84
2019-03-12T07:24:07.288Z,31.24
2019-03-12T07:25:07.330Z,29.63
2019-03-12T07:26:07.268Z,30.65
2019-03-12T07:27:07.258Z,34.06
2019-03-12T07:28:07.249Z,30.54
2019-03-12T07:29:07.239Z,32.14
2019-03-12T07:30:07.228Z,34.53
2019-03-12T07:31:07.290Z,29.93
2019-03-12T07:32:07.210Z,29.74
2019-03-12T07:33:07.200Z,30.06
2019-03-12T07:34:07.191Z,30.56
2019-03-12T07:35:07.181Z,33.90
2019-03-12T07:36:07.165Z,31.68
2019-03-12T07:37:07.306Z,34.58
2019-03-12T07:38:07.146Z,30.39
2019-03-12T07:39:07.136Z,32.74
2019-03-12T07:40:07.128Z,34.33
2019-03-12T07:41:07.118Z,32.40
2019-03-12T07:42:07.111Z,31.93
2019-03-12T07:43:07.152Z,31.84
2019-03-12T07:44:07.313Z,32.47
2019-03-12T07:45:07.072Z,35.07
2019-03-12T07:46:07.064Z,32.67
2019-03-12T07:47:07.052Z,32.38
2019-03-12T07:48:07.087Z,34.41
2019-03-12T07:49:07.032Z,32.98
2019-03-12T07:50:07.017Z,35.59
2019-03-12T07:51:07.009Z,32.45
2019-03-12T07:52:08.766Z,35.65
2019-03-12T07:53:06.986Z,35.12
2019-03-12T07:54:07.074Z,31.99
2019-03-12T07:55:06.964Z,32.62
2019-03-12T07:56:06.953Z,33.12
2019-03-12T07:57:06.939Z,32.47
2019-03-12T07:58:06.929Z,32.72
2019-03-12T07:59:09.040Z,33.44
2019-03-12T08:00:09.920Z,34.65
2019-03-12T08:01:06.898Z,34.55
2019-03-12T08:02:06.886Z,34.75
2019-03-12T08:03:06.876Z,33.34
2019-03-12T08:04:06.865Z,35.85
2019-03-12T08:05:06.908Z,36.13
2019-03-12T08:06:06.847Z,34.89
2019-03-12T08:07:06.831Z,32.65
2019-03-12T08:08:06.820Z,33.64
2019-03-12T08:09:06.812Z,33.50
2019-03-12T08:10:06.801Z,34.79
2019-03-12T08:11:06.889Z,32.95
2019-03-12T08:12:06.778Z,31.45
2019-03-12T08:13:06.765Z,32.66
2019-03-12T08:14:06.758Z,30.65
2019-03-12T08:15:06.746Z,32.98
2019-03-12T08:16:06.738Z,33.68
2019-03-12T08:17:06.875Z,32.37
2019-03-12T08:18:06.712Z,32.46
2019-03-12T08:19:06.702Z,30.35
2019-03-12T08:20:06.691Z,32.17
2019-03-12T08:21:06.758Z,30.67
2019-03-12T08:22:06.677Z,30.70
2019-03-12T08:23:06.710Z,34.44
2019-03-12T08:24:06.745Z,35.52
2019-03-12T08:25:06.636Z,33.11
2019-03-12T08:26:06.723Z,35.31
2019-03-12T08:27:06.616Z,31.57
2019-03-12T08:28:06.602Z,31.17
2019-03-12T08:29:06.643Z,30.48
2019-03-12T08:30:06.579Z,32.49
2019-03-12T08:31:06.573Z,32.89
2019-03-12T08:32:06.562Z,31.70
2019-03-12T08:33:06.547Z,34.28
2019-03-12T08:34:06.545Z,32.76
2019-03-12T08:35:06.727Z,32.95
2019-03-12T08:36:06.521Z,31.12
2019-03-12T08:37:06.507Z,29.52
2019-03-12T08:38:06.496Z,29.41
2019-03-12T08:39:06.485Z,29.03
2019-03-12T08:40:06.476Z,28.45
2019-03-12T08:41:06.513Z,29.83
2019-03-12T08:42:06.452Z,31.46
2019-03-12T08:43:06.441Z,33.47
2019-03-12T08:44:06.432Z,30.95
2019-03-12T08:45:06.418Z,32.44
2019-03-12T08:46:06.410Z,31.53
2019-03-12T08:47:06.447Z,32.44
2019-03-12T08:48:06.385Z,33.63
2019-03-12T08:49:06.375Z,32.70
2019-03-12T08:50:06.362Z,31.31
2019-03-12T08:51:06.353Z,32.32
2019-03-12T08:52:06.344Z,30.41
2019-03-12T08:53:06.480Z,28.00
2019-03-12T08:54:06.318Z,31.23
2019-03-12T08:55:06.313Z,29.62
2019-03-12T08:56:06.295Z,29.21
2019-03-12T08:57:06.293Z,29.31
2019-03-12T08:58:06.327Z,34.44
2019-03-12T08:59:06.268Z,32.98
2019-03-12T09:00:06.256Z,32.14
2019-03-12T09:01:06.245Z,32.13
2019-03-12T09:02:06.234Z,31.01
2019-03-12T09:03:06.271Z,31.62
2019-03-12T09:04:06.214Z,32.41
2019-03-12T09:05:06.198Z,29.10
2019-03-12T09:06:06.189Z,31.11
2019-03-12T09:07:06.179Z,31.61
2019-03-12T09:08:06.169Z,31.20
2019-03-12T09:09:06.306Z,29.70
2019-03-12T09:10:06.148Z,28.51
2019-03-12T09:11:06.137Z,28.84
2019-03-12T09:12:06.122Z,29.46
2019-03-12T09:13:06.111Z,31.97
2019-03-12T09:14:06.103Z,31.68
2019-03-12T09:15:06.146Z,32.67
2019-03-12T09:16:06.085Z,29.85
2019-03-12T09:17:06.077Z,29.54
2019-03-12T09:18:06.058Z,29.54
2019-03-12T09:19:06.046Z,30.48
2019-03-12T09:20:06.039Z,30.27
2019-03-12T09:21:06.077Z,32.50
2019-03-12T09:22:06.014Z,31.30
2019-03-12T09:23:06.002Z,32.30
2019-03-12T09:24:05.998Z,33.88
2019-03-12T09:25:05.983Z,32.26
2019-03-12T09:26:05.987Z,31.82
2019-03-12T09:27:06.214Z,30.43
2019-03-12T09:28:05.949Z,32.83
2019-03-12T09:29:05.939Z,32.91
2019-03-12T09:30:06.012Z,33.33
2019-03-12T09:31:05.919Z,31.30
2019-03-12T09:32:05.906Z,33.81
2019-03-12T09:33:05.942Z,32.50
2019-03-12T09:34:05.886Z,33.71
2019-03-12T09:35:05.872Z,30.70
2019-03-12T09:36:05.866Z,32.61
2019-03-12T09:37:05.853Z,32.37
2019-03-12T09:38:05.845Z,32.17
2019-03-12T09:39:05.888Z,32.47
2019-03-12T09:40:05.825Z,33.06
2019-03-12T09:41:05.809Z,32.46
2019-03-12T09:42:05.799Z,31.94
2019-03-12T09:43:05.785Z,31.35
2019-03-12T09:44:05.777Z,32.58
2019-03-12T09:45:05.916Z,32.49
2019-03-12T09:46:05.753Z,32.91
2019-03-12T09:47:05.742Z,32.67
2019-03-12T09:48:05.737Z,32.79
2019-03-12T09:49:05.728Z,32.27
2019-03-12T09:50:05.714Z,31.67
2019-03-12T09:51:05.752Z,32.46
2019-03-12T09:52:05.687Z,32.56
2019-03-12T09:53:05.680Z,32.84
2019-03-12T09:54:05.667Z,32.61
2019-03-12T09:55:05.658Z,32.21
2019-03-12T09:56:05.646Z,32.61
2019-03-12T09:57:05.686Z,33.60
2019-03-12T09:58:05.623Z,32.20
2019-03-12T09:59:05.617Z,31.50
2019-03-12T10:00:15.688Z,33.80
2019-03-12T10:01:30.402Z,31.71
2019-03-12T10:02:30.507Z,30.22
2019-03-12T10:03:30.392Z,31.89
2019-03-12T10:04:30.439Z,34.71
2019-03-12T10:05:30.362Z,34.77
2019-03-12T10:06:30.351Z,34.53
2019-03-12T10:07:30.337Z,33.42
2019-03-12T10:08:30.431Z,33.20
2019-03-12T10:09:30.318Z,34.41
2019-03-12T10:10:30.313Z,34.09
2019-03-12T10:11:30.295Z,33.89
2019-03-12T10:12:30.287Z,34.47
2019-03-12T10:13:30.430Z,34.17
2019-03-12T10:14:30.265Z,33.85
2019-03-12T10:15:30.257Z,33.75
2019-03-12T10:16:30.354Z,33.95
2019-03-12T10:17:30.230Z,33.95
2019-03-12T10:18:30.220Z,33.95
2019-03-12T10:19:30.260Z,28.46
2019-03-12T10:20:30.196Z,31.28
2019-03-12T10:21:30.196Z,34.39
2019-03-12T10:22:30.175Z,34.67
2019-03-12T10:23:30.169Z,34.17
2019-03-12T10:24:30.202Z,34.77
2019-03-12T10:25:30.148Z,34.77
2019-03-12T10:26:30.137Z,34.47
2019-03-12T10:27:30.122Z,34.25
2019-03-12T10:28:30.114Z,34.55
2019-03-12T10:29:30.402Z,29.36
2019-03-12T10:30:30.092Z,31.98
2019-03-12T10:31:30.077Z,29.59
2019-03-12T10:32:30.067Z,30.74
2019-03-12T10:33:30.058Z,32.64
2019-03-12T10:34:30.389Z,30.45
2019-03-12T10:35:30.036Z,32.89
2019-03-12T10:36:31.127Z,35.88
2019-03-12T10:37:30.017Z,34.53
2019-03-12T10:38:30.004Z,30.62
2019-03-12T10:39:29.990Z,30.36
2019-03-12T10:40:30.030Z,35.91
2019-03-12T10:41:30.015Z,35.16
2019-03-12T10:42:30.002Z,34.32
2019-03-12T10:43:29.991Z,34.10
2019-03-12T10:44:29.976Z,34.28
2019-03-12T10:45:30.120Z,34.28
2019-03-12T10:46:29.954Z,32.37
2019-03-12T10:47:29.945Z,32.47
2019-03-12T10:48:29.930Z,32.18
2019-03-12T10:49:37.279Z,28.58
2019-03-12T10:50:54.781Z,34.41
2019-03-12T10:51:54.764Z,33.99
2019-03-12T10:52:54.955Z,33.77
2019-03-12T10:53:54.743Z,33.17
2019-03-12T10:54:54.735Z,33.87
2019-03-12T10:55:54.803Z,33.16
2019-03-12T10:56:54.708Z,33.55
2019-03-12T10:57:54.698Z,33.25
2019-03-12T10:58:54.689Z,33.35
2019-03-12T10:59:54.673Z,33.35
2019-03-12T11:00:54.662Z,32.55
2019-03-12T11:01:54.754Z,32.45
2019-03-12T11:02:54.646Z,32.05
2019-03-12T11:03:54.633Z,32.45
2019-03-12T11:04:54.823Z,32.65
2019-03-12T11:05:54.612Z,32.55
2019-03-12T11:06:54.595Z,32.35
2019-03-12T11:07:54.634Z,32.05
2019-03-12T11:08:54.575Z,32.37
2019-03-12T11:09:54.586Z,32.18
2019-03-12T11:10:54.554Z,32.58
2019-03-12T11:11:54.542Z,32.67
2019-03-12T11:12:54.534Z,32.47
2019-03-12T11:13:54.724Z,32.57
2019-03-12T11:14:54.516Z,32.47
2019-03-12T11:15:54.503Z,32.07
2019-03-12T11:16:54.488Z,32.26
2019-03-12T11:17:54.476Z,32.07
2019-03-12T11:18:54.466Z,31.17
2019-03-12T11:19:54.506Z,32.26
2019-03-12T11:20:54.462Z,31.38
2019-03-12T11:21:54.436Z,32.78
2019-03-12T11:22:54.421Z,32.48
2019-03-12T11:23:54.410Z,32.57
2019-03-12T11:24:54.403Z,32.47
2019-03-12T11:25:54.442Z,32.37
2019-03-12T11:26:54.377Z,31.97
2019-03-12T11:27:54.369Z,32.26
2019-03-12T11:28:54.359Z,32.26
2019-03-12T11:29:54.344Z,32.26
2019-03-12T11:30:54.339Z,31.76
2019-03-12T11:31:54.774Z,31.17
2019-03-12T11:32:54.311Z,32.18
2019-03-12T11:33:54.303Z,32.69
2019-03-12T11:34:54.290Z,32.48
2019-03-12T11:35:54.329Z,32.58
2019-03-12T11:36:54.268Z,32.26
2019-03-12T11:37:54.325Z,32.18
2019-03-12T11:38:54.277Z,32.18
2019-03-12T11:39:54.228Z,32.17
2019-03-12T11:40:54.277Z,32.47
2019-03-12T11:41:54.212Z,32.38
2019-03-12T11:42:54.237Z,32.58
2019-03-12T11:43:54.290Z,32.48
2019-03-12T11:44:54.206Z,32.69
2019-03-12T11:45:54.169Z,32.78
2019-03-12T11:46:54.177Z,32.37
2019-03-12T11:47:54.147Z,32.69
2019-03-12T11:48:54.135Z,32.37
2019-03-12T11:49:54.624Z,32.48
2019-03-12T11:50:54.118Z,31.38
2019-03-12T11:51:54.105Z,32.28
2019-03-12T11:52:57.657Z,32.18
2019-03-12T11:53:54.088Z,32.69
2019-03-12T11:54:54.068Z,32.38
2019-03-12T11:55:54.229Z,32.48
2019-03-12T11:56:54.072Z,32.58
2019-03-12T11:57:54.322Z,32.58
2019-03-12T11:58:54.025Z,32.38
2019-03-12T11:59:54.290Z,32.20
2019-03-12T12:00:54.006Z,32.10
2019-03-12T12:01:54.097Z,32.60
2019-03-12T12:02:59.739Z,32.20
2019-03-12T12:04:18.780Z,32.50
2019-03-12T12:05:18.771Z,32.80
2019-03-12T12:06:18.757Z,32.80
2019-03-12T12:07:18.998Z,32.50
2019-03-12T12:08:18.777Z,32.40
2019-03-12T12:09:18.734Z,32.40
2019-03-12T12:10:18.681Z,32.40
2019-03-12T12:11:18.708Z,32.29
2019-03-12T12:12:18.696Z,32.10
2019-03-12T12:13:18.737Z,32.50
2019-03-12T12:14:18.671Z,32.50
2019-03-12T12:15:18.660Z,32.50
2019-03-12T12:16:18.650Z,32.80
2019-03-12T12:17:18.635Z,32.80
2019-03-12T12:18:18.737Z,32.40
2019-03-12T12:19:18.695Z,32.40
2019-03-12T12:20:29.021Z,32.61
2019-03-12T12:21:43.415Z,32.70
2019-03-12T12:22:43.396Z,32.60
2019-03-12T12:23:43.531Z,32.60
2019-03-12T12:24:43.377Z,32.50
2019-03-12T12:25:43.364Z,33.02
2019-03-12T12:26:43.352Z,32.81
2019-03-12T12:27:43.344Z,33.02
2019-03-12T12:28:43.328Z,33.02
2019-03-12T12:29:43.368Z,32.81
2019-03-12T12:30:43.307Z,32.41
2019-03-12T12:31:43.291Z,33.22
2019-03-12T12:32:43.285Z,33.02
2019-03-12T12:33:43.270Z,32.41
2019-03-12T12:34:43.260Z,33.62
2019-03-12T12:35:43.304Z,33.33
2019-03-12T12:36:43.241Z,33.31
2019-03-12T12:37:43.246Z,33.31
2019-03-12T12:38:43.221Z,33.52
2019-03-12T12:39:43.207Z,33.52
2019-03-12T12:40:43.195Z,33.62
2019-03-12T12:41:43.486Z,33.31
2019-03-12T12:42:43.172Z,33.02
2019-03-12T12:43:43.162Z,33.42
2019-03-12T12:44:43.150Z,30.82
2019-03-12T12:45:43.135Z,31.93
2019-03-12T12:46:43.125Z,31.53
2019-03-12T12:47:43.209Z,29.74
2019-03-12T12:48:43.103Z,31.65
2019-03-12T12:49:43.095Z,30.36
2019-03-12T12:50:43.073Z,30.48
2019-03-12T12:51:43.066Z,32.40
2019-03-12T12:52:43.061Z,31.71
2019-03-12T12:53:43.070Z,31.62